x

Stonewall Bank - 20nm West Of Newport, Or (46050) Wave Buoy

6:50pm - Wed 27th May 2015 All times are PDT. -7 hours from GMT.

  • Sig Wave height 6.2ft
  • Swell Direction
  • Peak Period 12s
  • Average Period 7s
  • Wind
    16mph, 18mph gusts
  • Sea Temp 56°f
  • Air Temp 55°f
  • Sea Pressure 1017.1mb
  • Stonewall Bank - 20nm West Of Newport, Or
  • Stonewall Bank - 20nm West Of Newport, Or

More Historic Weather Station data

Upgrade to MSW Pro to gain access to the past 30 days of data for over 8000 Wavebouys and Weather Stations around the globe.

Join Pro

Comparision Forecast

View Surf forecast
   
Wed 05/27 6:50pm 6ft 12s 7s 16 18 mph 1017.1mb 56f 55f
5:50pm 6ft 14s 7s 16 20 mph 1017.6mb 56f 55f
4:50pm 6ft 11s 7s 16 20 mph 1018.2mb 56f 55f
3:50pm 5.5ft 13s 8s 16 18 mph 1018.4mb 56f 55f
2:50pm 5.5ft 14s 8s 13 16 mph 1018.5mb 56f 55f
1:50pm 5ft 14s 8s 11 13 mph 1018.8mb 56f 55f
12:50pm 6ft 15s 8s 9 11 mph 1018.8mb 55f 55f
11:50am 5ft 15s 7s 9 11 mph 1018.8mb 55f 54f
10:50am 5ft 15s 7s 9 13 mph 1018.7mb 55f 54f
9:50am 5ft 15s 7s 9 11 mph 1018.7mb 55f 54f
8:50am 5.5ft 15s 7s 9 13 mph 1018.6mb 55f 53f
7:50am 5.5ft 15s 7s 11 13 mph 1018.2mb 55f 53f
6:50am 5.5ft 15s 7s 11 16 mph 1018.1mb 55f 53f
5:50am 5.5ft 14s 7s 11 13 mph 1018mb 55f 53f
4:50am 5.5ft 15s 7s 11 16 mph 1017.9mb 55f 54f
3:50am 5ft 16s 6s 13 16 mph 1017.9mb 56f 54f
2:50am 6ft 15s 7s 11 16 mph 1018mb 55f 54f
1:50am 6ft 8s 7s 13 18 mph 1017.9mb 55f 54f
12:50am 6ft 8s 6s 13 18 mph 1017.8mb 55f 54f
Tue 05/26 11:50pm 5ft 8s 6s 13 20 mph 1017.6mb 55f 54f
10:50pm 5ft 8s 6s 16 18 mph 1017.7mb 55f 55f
9:50pm 5ft 16s 6s 13 18 mph 1017.4mb 55f 55f
8:50pm 5ft 17s 6s 16 18 mph 1017mb 55f 55f
7:50pm 4.5ft 17s 6s 13 18 mph 1016.9mb 55f 55f
6:50pm 5ft 8s 6s 16 18 mph 1016.9mb 55f 55f
5:50pm 4.5ft 8s 6s 13 18 mph 1017.2mb 56f 56f
4:50pm 5ft 7s 7s 9 13 mph 1017.7mb 56f 55f
3:50pm 4.5ft 7s 6s 11
mph
1017.9mb 56f 55f
2:50pm 5ft 7s 6s 7
mph
1018.1mb 56f 55f
1:50pm 4.5ft 8s 6s 11
mph
1018.1mb 56f 54f
12:50pm 5ft 7s 6s 11 13 mph 1018.2mb 55f 54f
11:50am 4.5ft 7s 6s 9
mph
1018.3mb 55f 53f
10:50am 5ft 8s 6s 4 7 mph 1018.2mb 55f 54f
9:50am 5ft 8s 6s 2 4 mph 1017.8mb 54f 54f
8:50am 5.5ft 8s 6s 9 11 mph 1017.8mb 54f 54f
7:50am 5ft 8s 6s 9 11 mph 1017.4mb 54f 54f
6:50am 5ft 8s 6s 9 11 mph 1017.3mb 54f 53f
5:50am 5.5ft 8s 6s 9 11 mph 1017.1mb 55f 54f
4:50am 5ft 8s 6s 16 18 mph 1017mb 54f 53f
3:50am 5ft 8s 6s 13 18 mph 1017mb 54f 55f
2:50am 5ft 8s 6s 13 18 mph 1017.2mb 55f 55f
1:50am 6ft 8s 6s 16 20 mph 1017.2mb 54f 55f
12:50am 5ft 8s 6s 16 20 mph 1017.1mb 54f 55f
Mon 05/25 11:50pm 6ft 8s 6s 18 20 mph 1017.4mb 54f 55f
10:50pm 5.5ft 9s 6s 18 20 mph 1017.5mb 54f 55f
9:50pm 6ft 8s 6s 18 22 mph 1017.1mb 54f 55f
8:50pm 6ft 8s 6s 16 20 mph 1016.8mb 54f 55f
7:50pm 6ft 9s 6s 16 18 mph 1016.7mb 54f 55f
6:50pm 5.5ft 7s 6s 16 20 mph 1016.7mb 54f 55f
5:50pm 6ft 8s 6s 16 18 mph 1017mb 55f 55f
4:50pm 5.5ft 8s 6s 16 18 mph 1017.2mb 55f 55f
2:50pm 5ft 11s 7s 11
mph
1017.7mb 55f 55f
1:50pm 5ft 11s 7s 11 13 mph 1018mb 55f 54f
12:50pm 4.5ft 7s 6s 9 13 mph 1018.1mb 55f 54f
11:50am 4.5ft 8s 7s 7 9 mph 1018mb 55f 53f
10:50am 5ft 8s 6s 7 9 mph 1017.5mb 54f 53f
9:50am 5ft 8s 6s 7 9 mph 1017.4mb 54f 53f
8:50am 5ft 8s 6s 11 16 mph 1017.2mb 54f 53f
7:50am 5ft 12s 6s 11 13 mph 1017mb 53f 53f
6:50am 5ft 11s 6s 13
mph
1016.8mb 53f 54f
5:50am 5.5ft 11s 6s 13 16 mph 1016.7mb 53f 54f
4:50am 6ft 8s 6s 13 16 mph 1016.6mb 53f 53f
3:50am 6ft 8s 6s 13 16 mph 1016.8mb 54f 54f
2:50am 6ft 7s 6s 16 18 mph 1017.1mb 54f 54f
1:50am 6ft 8s 6s 16 18 mph 1017.1mb 54f 54f
12:50am 6ft 8s 6s 16 18 mph 1017.3mb 55f 54f
Sun 05/24 11:50pm 6ft 11s 6s 16 20 mph 1017.5mb 55f 54f
10:50pm 5.5ft 8s 6s 16 22 mph 1017.6mb 55f 54f
9:50pm 5ft 11s 5s 18 22 mph 1017.7mb 55f 54f
8:50pm 5ft 8s 5s 16 18 mph 1017.6mb 55f 54f
6:50pm 5ft 11s 6s 18 22 mph 1017.8mb 55f 54f
5:50pm 5ft 7s 6s 16 20 mph 1018.1mb 55f 55f
4:50pm 5ft 8s 6s 16 20 mph 1018.7mb 55f 55f
3:50pm 5ft 8s 6s 16 18 mph 1019.3mb 55f 54f
2:50pm 5ft 11s 6s 16 18 mph 1019.9mb 55f 54f
1:50pm 5ft 11s 6s 16
mph
1020.4mb 55f 55f
12:50pm 5ft 9s 6s 16 18 mph 1020.6mb 55f 54f
11:50am 5ft 9s 6s 18 22 mph 1021.1mb 55f 54f
10:50am 5ft 8s 6s 16 18 mph 1021.2mb 54f 53f
9:50am 5ft 11s 6s 13 18 mph 1021.4mb 54f 54f
8:50am 5.5ft 8s 6s 16 18 mph 1021.5mb 53f 53f
7:50am 5ft 8s 6s 11 13 mph 1021.6mb 54f 53f
6:50am 5ft 8s 6s 16 18 mph 1021.4mb 54f 52f
5:50am 5ft 8s 6s 13 16 mph 1021.1mb 54f 54f
4:50am 5ft 8s 6s 13 16 mph 1021.3mb 54f 53f